sensor_id;sensor_type;location;lat;lon;timestamp;pressure;altitude;pressure_sealevel;temperature;humidity
23677;BME280;31493;49.058;12.190;2023-05-03T00:01:40;96793.09;;;8.16;100.00
23677;BME280;31493;49.058;12.190;2023-05-03T00:04:08;96775.22;;;8.13;100.00
23677;BME280;31493;49.058;12.190;2023-05-03T00:06:37;96786.00;;;8.02;100.00
23677;BME280;31493;49.058;12.190;2023-05-03T00:09:04;96785.03;;;8.23;100.00
23677;BME280;31493;49.058;12.190;2023-05-03T00:11:32;96773.03;;;8.03;100.00
23677;BME280;31493;49.058;12.190;2023-05-03T00:13:59;96770.75;;;7.97;100.00
23677;BME280;31493;49.058;12.190;2023-05-03T00:16:26;96777.03;;;7.92;100.00
23677;BME280;31493;49.058;12.190;2023-05-03T00:18:53;96782.53;;;7.84;100.00
23677;BME280;31493;49.058;12.190;2023-05-03T00:21:20;96781.91;;;7.98;100.00
23677;BME280;31493;49.058;12.190;2023-05-03T00:23:49;96774.72;;;7.86;100.00
23677;BME280;31493;49.058;12.190;2023-05-03T00:26:16;96772.59;;;7.76;100.00
23677;BME280;31493;49.058;12.190;2023-05-03T00:28:43;96773.06;;;7.85;100.00
23677;BME280;31493;49.058;12.190;2023-05-03T00:31:10;96774.44;;;7.73;100.00
23677;BME280;31493;49.058;12.190;2023-05-03T00:33:37;96781.59;;;7.68;100.00
23677;BME280;31493;49.058;12.190;2023-05-03T00:36:06;96783.38;;;7.85;100.00
23677;BME280;31493;49.058;12.190;2023-05-03T00:38:34;96771.81;;;7.93;100.00
23677;BME280;31493;49.058;12.190;2023-05-03T00:41:02;96774.16;;;7.98;100.00
23677;BME280;31493;49.058;12.190;2023-05-03T00:43:30;96780.75;;;7.86;100.00
23677;BME280;31493;49.058;12.190;2023-05-03T00:45:57;96778.78;;;7.91;100.00
23677;BME280;31493;49.058;12.190;2023-05-03T00:48:25;96774.03;;;8.01;100.00
23677;BME280;31493;49.058;12.190;2023-05-03T00:50:53;96764.22;;;7.90;100.00
23677;BME280;31493;49.058;12.190;2023-05-03T00:53:21;96759.97;;;7.89;100.00
23677;BME280;31493;49.058;12.190;2023-05-03T00:55:51;96767.13;;;8.01;100.00
23677;BME280;31493;49.058;12.190;2023-05-03T00:58:19;96759.69;;;7.95;100.00
23677;BME280;31493;49.058;12.190;2023-05-03T01:00:47;96771.94;;;7.90;100.00
23677;BME280;31493;49.058;12.190;2023-05-03T01:03:14;96763.53;;;7.87;100.00
23677;BME280;31493;49.058;12.190;2023-05-03T01:05:47;96767.34;;;7.78;100.00
23677;BME280;31493;49.058;12.190;2023-05-03T01:08:24;96769.72;;;7.82;100.00
23677;BME280;31493;49.058;12.190;2023-05-03T01:10:58;96763.03;;;7.78;100.00
23677;BME280;31493;49.058;12.190;2023-05-03T01:13:37;96758.78;;;7.77;100.00
23677;BME280;31493;49.058;12.190;2023-05-03T01:16:12;96759.69;;;7.76;100.00
23677;BME280;31493;49.058;12.190;2023-05-03T01:18:44;96762.91;;;7.81;100.00
23677;BME280;31493;49.058;12.190;2023-05-03T01:21:15;96767.97;;;7.83;100.00
23677;BME280;31493;49.058;12.190;2023-05-03T01:23:52;96757.47;;;7.88;100.00
23677;BME280;31493;49.058;12.190;2023-05-03T01:26:22;96756.75;;;7.84;100.00
23677;BME280;31493;49.058;12.190;2023-05-03T01:28:50;96756.56;;;7.89;100.00
23677;BME280;31493;49.058;12.190;2023-05-03T01:31:21;96764.13;;;7.73;100.00
23677;BME280;31493;49.058;12.190;2023-05-03T01:33:57;96760.59;;;7.75;100.00
23677;BME280;31493;49.058;12.190;2023-05-03T01:36:29;96763.47;;;7.69;100.00
23677;BME280;31493;49.058;12.190;2023-05-03T01:38:59;96761.84;;;7.67;100.00
23677;BME280;31493;49.058;12.190;2023-05-03T01:41:30;96760.69;;;7.74;100.00
23677;BME280;31493;49.058;12.190;2023-05-03T01:43:58;96760.41;;;7.61;100.00
23677;BME280;31493;49.058;12.190;2023-05-03T01:46:26;96761.91;;;7.65;100.00
23677;BME280;31493;49.058;12.190;2023-05-03T01:48:53;96758.84;;;7.38;100.00
23677;BME280;31493;49.058;12.190;2023-05-03T01:51:20;96756.75;;;7.46;100.00
23677;BME280;31493;49.058;12.190;2023-05-03T01:53:47;96759.53;;;7.42;100.00
23677;BME280;31493;49.058;12.190;2023-05-03T01:56:14;96765.03;;;7.34;100.00
23677;BME280;31493;49.058;12.190;2023-05-03T01:58:43;96765.75;;;7.38;100.00
23677;BME280;31493;49.058;12.190;2023-05-03T02:01:10;96753.78;;;7.37;100.00
23677;BME280;31493;49.058;12.190;2023-05-03T02:03:37;96763.56;;;7.28;100.00
23677;BME280;31493;49.058;12.190;2023-05-03T02:06:04;96754.50;;;7.20;100.00
23677;BME280;31493;49.058;12.190;2023-05-03T02:08:31;96747.13;;;7.12;100.00
23677;BME280;31493;49.058;12.190;2023-05-03T02:10:58;96756.78;;;7.07;100.00
23677;BME280;31493;49.058;12.190;2023-05-03T02:13:25;96749.88;;;7.08;100.00
23677;BME280;31493;49.058;12.190;2023-05-03T02:15:53;96762.69;;;7.09;100.00
23677;BME280;31493;49.058;12.190;2023-05-03T02:18:20;96750.00;;;7.05;100.00
23677;BME280;31493;49.058;12.190;2023-05-03T02:20:48;96758.81;;;6.99;100.00
23677;BME280;31493;49.058;12.190;2023-05-03T02:23:15;96759.16;;;6.91;100.00
23677;BME280;31493;49.058;12.190;2023-05-03T02:25:42;96768.75;;;6.88;100.00
23677;BME280;31493;49.058;12.190;2023-05-03T02:28:09;96765.13;;;6.92;100.00
23677;BME280;31493;49.058;12.190;2023-05-03T02:30:36;96774.03;;;6.85;100.00
23677;BME280;31493;49.058;12.190;2023-05-03T02:33:05;96775.09;;;6.79;100.00
23677;BME280;31493;49.058;12.190;2023-05-03T02:35:32;96773.63;;;6.73;100.00
23677;BME280;31493;49.058;12.190;2023-05-03T02:37:59;96771.31;;;6.67;100.00
23677;BME280;31493;49.058;12.190;2023-05-03T02:40:26;96770.22;;;6.73;100.00
23677;BME280;31493;49.058;12.190;2023-05-03T02:42:53;96759.84;;;6.74;100.00
23677;BME280;31493;49.058;12.190;2023-05-03T02:45:20;96769.63;;;6.66;100.00
23677;BME280;31493;49.058;12.190;2023-05-03T02:47:47;96767.91;;;6.67;100.00
23677;BME280;31493;49.058;12.190;2023-05-03T02:50:15;96767.72;;;6.71;100.00
23677;BME280;31493;49.058;12.190;2023-05-03T02:52:42;96760.38;;;6.62;100.00
23677;BME280;31493;49.058;12.190;2023-05-03T02:55:09;96754.72;;;6.54;100.00
23677;BME280;31493;49.058;12.190;2023-05-03T02:57:36;96766.66;;;6.55;100.00
23677;BME280;31493;49.058;12.190;2023-05-03T03:00:05;96762.50;;;6.53;100.00
23677;BME280;31493;49.058;12.190;2023-05-03T03:02:32;96767.56;;;6.54;100.00
23677;BME280;31493;49.058;12.190;2023-05-03T03:05:00;96762.56;;;6.51;100.00
23677;BME280;31493;49.058;12.190;2023-05-03T03:07:28;96764.41;;;6.47;100.00
23677;BME280;31493;49.058;12.190;2023-05-03T03:09:55;96767.56;;;6.54;100.00
23677;BME280;31493;49.058;12.190;2023-05-03T03:12:22;96775.47;;;6.50;100.00
23677;BME280;31493;49.058;12.190;2023-05-03T03:14:50;96769.38;;;6.52;100.00
23677;BME280;31493;49.058;12.190;2023-05-03T03:17:17;96772.13;;;6.47;100.00
23677;BME280;31493;49.058;12.190;2023-05-03T03:19:44;96782.59;;;6.43;100.00
23677;BME280;31493;49.058;12.190;2023-05-03T03:22:11;96762.22;;;6.38;100.00
23677;BME280;31493;49.058;12.190;2023-05-03T03:24:39;96775.97;;;6.37;100.00
23677;BME280;31493;49.058;12.190;2023-05-03T03:27:06;96775.78;;;6.42;100.00
23677;BME280;31493;49.058;12.190;2023-05-03T03:29:34;96770.81;;;6.37;100.00
23677;BME280;31493;49.058;12.190;2023-05-03T03:32:01;96771.06;;;6.31;100.00
23677;BME280;31493;49.058;12.190;2023-05-03T03:34:28;96772.78;;;6.31;100.00
23677;BME280;31493;49.058;12.190;2023-05-03T03:36:55;96780.22;;;6.38;100.00
23677;BME280;31493;49.058;12.190;2023-05-03T03:39:22;96775.25;;;6.34;100.00
23677;BME280;31493;49.058;12.190;2023-05-03T03:41:50;96775.91;;;6.39;100.00
23677;BME280;31493;49.058;12.190;2023-05-03T03:44:17;96781.34;;;6.31;100.00
23677;BME280;31493;49.058;12.190;2023-05-03T03:46:44;96784.72;;;6.33;100.00
23677;BME280;31493;49.058;12.190;2023-05-03T03:49:11;96782.41;;;6.26;100.00
23677;BME280;31493;49.058;12.190;2023-05-03T03:51:38;96783.97;;;6.30;100.00
23677;BME280;31493;49.058;12.190;2023-05-03T03:54:05;96785.66;;;6.31;100.00
23677;BME280;31493;49.058;12.190;2023-05-03T03:56:32;96781.72;;;6.22;100.00
23677;BME280;31493;49.058;12.190;2023-05-03T03:59:01;96788.22;;;6.31;100.00
23677;BME280;31493;49.058;12.190;2023-05-03T04:01:28;96792.44;;;6.33;100.00
23677;BME280;31493;49.058;12.190;2023-05-03T04:03:55;96793.50;;;6.28;100.00
23677;BME280;31493;49.058;12.190;2023-05-03T04:06:22;96788.22;;;6.31;100.00
23677;BME280;31493;49.058;12.190;2023-05-03T04:08:49;96795.47;;;6.21;100.00
23677;BME280;31493;49.058;12.190;2023-05-03T04:11:16;96800.72;;;6.18;100.00
23677;BME280;31493;49.058;12.190;2023-05-03T04:13:43;96792.06;;;6.21;100.00
23677;BME280;31493;49.058;12.190;2023-05-03T04:16:11;96793.50;;;6.28;100.00
23677;BME280;31493;49.058;12.190;2023-05-03T04:18:38;96801.31;;;6.25;100.00
23677;BME280;31493;49.058;12.190;2023-05-03T04:21:06;96797.59;;;6.32;100.00
23677;BME280;31493;49.058;12.190;2023-05-03T04:23:33;96798.50;;;6.31;100.00
23677;BME280;31493;49.058;12.190;2023-05-03T04:26:00;96808.94;;;6.28;100.00
23677;BME280;31493;49.058;12.190;2023-05-03T04:28:27;96805.22;;;6.35;100.00
23677;BME280;31493;49.058;12.190;2023-05-03T04:30:54;96806.47;;;6.46;100.00
23677;BME280;31493;49.058;12.190;2023-05-03T04:33:24;96807.72;;;6.36;100.00
23677;BME280;31493;49.058;12.190;2023-05-03T04:35:52;96811.88;;;6.61;100.00
23677;BME280;31493;49.058;12.190;2023-05-03T04:38:19;96808.63;;;6.57;100.00
23677;BME280;31493;49.058;12.190;2023-05-03T04:40:46;96806.56;;;6.65;100.00
23677;BME280;31493;49.058;12.190;2023-05-03T04:43:14;96816.84;;;6.65;100.00
23677;BME280;31493;49.058;12.190;2023-05-03T04:45:41;96820.44;;;6.61;100.00
23677;BME280;31493;49.058;12.190;2023-05-03T04:48:08;96818.53;;;6.66;100.00
23677;BME280;31493;49.058;12.190;2023-05-03T04:50:36;96815.38;;;6.60;100.00
23677;BME280;31493;49.058;12.190;2023-05-03T04:53:03;96817.38;;;6.73;100.00
23677;BME280;31493;49.058;12.190;2023-05-03T04:55:31;96815.53;;;6.77;100.00
23677;BME280;31493;49.058;12.190;2023-05-03T04:57:58;96814.16;;;6.68;100.00
23677;BME280;31493;49.058;12.190;2023-05-03T05:00:26;96823.06;;;6.82;100.00
23677;BME280;31493;49.058;12.190;2023-05-03T05:02:54;96823.66;;;6.88;100.00
23677;BME280;31493;49.058;12.190;2023-05-03T05:05:22;96819.84;;;6.97;100.00
23677;BME280;31493;49.058;12.190;2023-05-03T05:07:51;96826.28;;;7.07;100.00
23677;BME280;31493;49.058;12.190;2023-05-03T05:10:18;96819.03;;;7.36;100.00
23677;BME280;31493;49.058;12.190;2023-05-03T05:12:45;96817.34;;;7.16;100.00
23677;BME280;31493;49.058;12.190;2023-05-03T05:15:12;96828.84;;;7.27;100.00
23677;BME280;31493;49.058;12.190;2023-05-03T05:17:39;96824.00;;;7.40;100.00
23677;BME280;31493;49.058;12.190;2023-05-03T05:20:07;96827.44;;;7.60;100.00
23677;BME280;31493;49.058;12.190;2023-05-03T05:22:37;96826.25;;;7.48;100.00
23677;BME280;31493;49.058;12.190;2023-05-03T05:25:06;96833.09;;;7.49;100.00
23677;BME280;31493;49.058;12.190;2023-05-03T05:27:34;96825.75;;;7.40;100.00
23677;BME280;31493;49.058;12.190;2023-05-03T05:30:01;96831.38;;;7.68;100.00
23677;BME280;31493;49.058;12.190;2023-05-03T05:32:29;96836.19;;;7.76;100.00
23677;BME280;31493;49.058;12.190;2023-05-03T05:34:56;96837.31;;;7.89;100.00
23677;BME280;31493;49.058;12.190;2023-05-03T05:37:23;96834.44;;;7.95;100.00
23677;BME280;31493;49.058;12.190;2023-05-03T05:39:52;96840.25;;;8.00;100.00
23677;BME280;31493;49.058;12.190;2023-05-03T05:42:20;96836.84;;;8.00;100.00
23677;BME280;31493;49.058;12.190;2023-05-03T05:44:47;96854.88;;;8.19;100.00
23677;BME280;31493;49.058;12.190;2023-05-03T05:47:14;96840.25;;;8.19;100.00
23677;BME280;31493;49.058;12.190;2023-05-03T05:49:41;96847.25;;;8.16;100.00
23677;BME280;31493;49.058;12.190;2023-05-03T05:52:08;96855.81;;;8.37;100.00
23677;BME280;31493;49.058;12.190;2023-05-03T05:54:36;96841.41;;;8.50;100.00
23677;BME280;31493;49.058;12.190;2023-05-03T05:57:03;96845.38;;;8.57;100.00
23677;BME280;31493;49.058;12.190;2023-05-03T05:59:31;96858.31;;;8.74;100.00
23677;BME280;31493;49.058;12.190;2023-05-03T06:01:58;96852.56;;;8.50;100.00
23677;BME280;31493;49.058;12.190;2023-05-03T06:04:25;96850.28;;;8.80;100.00
23677;BME280;31493;49.058;12.190;2023-05-03T06:06:53;96851.63;;;8.70;100.00
23677;BME280;31493;49.058;12.190;2023-05-03T06:09:21;96846.53;;;8.69;100.00
23677;BME280;31493;49.058;12.190;2023-05-03T06:11:48;96860.53;;;8.82;100.00
23677;BME280;31493;49.058;12.190;2023-05-03T06:14:15;96854.22;;;8.87;100.00
23677;BME280;31493;49.058;12.190;2023-05-03T06:16:45;96860.53;;;8.82;100.00
23677;BME280;31493;49.058;12.190;2023-05-03T06:19:12;96868.47;;;8.77;100.00
23677;BME280;31493;49.058;12.190;2023-05-03T06:21:39;96871.63;;;8.84;100.00
23677;BME280;31493;49.058;12.190;2023-05-03T06:24:06;96855.81;;;9.07;100.00
23677;BME280;31493;49.058;12.190;2023-05-03T06:26:33;96861.31;;;8.84;100.00
23677;BME280;31493;49.058;12.190;2023-05-03T06:29:01;96863.13;;;8.99;100.00
23677;BME280;31493;49.058;12.190;2023-05-03T06:31:28;96857.66;;;9.05;100.00
23677;BME280;31493;49.058;12.190;2023-05-03T06:33:57;96871.91;;;8.95;100.00
23677;BME280;31493;49.058;12.190;2023-05-03T06:36:24;96864.25;;;8.94;100.00
23677;BME280;31493;49.058;12.190;2023-05-03T06:38:52;96866.00;;;8.93;100.00
23677;BME280;31493;49.058;12.190;2023-05-03T06:41:19;96867.47;;;8.99;100.00
23677;BME280;31493;49.058;12.190;2023-05-03T06:43:46;96868.00;;;9.23;100.00
23677;BME280;31493;49.058;12.190;2023-05-03T06:46:13;96869.81;;;9.21;100.00
23677;BME280;31493;49.058;12.190;2023-05-03T06:48:41;96864.06;;;9.15;100.00
23677;BME280;31493;49.058;12.190;2023-05-03T06:51:09;96880.53;;;9.30;100.00
23677;BME280;31493;49.058;12.190;2023-05-03T06:53:36;96878.25;;;9.24;100.00
23677;BME280;31493;49.058;12.190;2023-05-03T06:56:04;96878.25;;;9.24;100.00
23677;BME280;31493;49.058;12.190;2023-05-03T06:58:31;96879.38;;;9.19;100.00
23677;BME280;31493;49.058;12.190;2023-05-03T07:00:58;96875.06;;;9.19;100.00
23677;BME280;31493;49.058;12.190;2023-05-03T07:03:25;96879.31;;;9.37;100.00
23677;BME280;31493;49.058;12.190;2023-05-03T07:05:52;96876.19;;;9.48;100.00
23677;BME280;31493;49.058;12.190;2023-05-03T07:08:20;96873.50;;;9.67;100.00
23677;BME280;31493;49.058;12.190;2023-05-03T07:10:47;96880.19;;;9.71;100.00
23677;BME280;31493;49.058;12.190;2023-05-03T07:13:14;96875.25;;;9.66;100.00
23677;BME280;31493;49.058;12.190;2023-05-03T07:15:41;96881.78;;;9.74;100.00
23677;BME280;31493;49.058;12.190;2023-05-03T07:18:10;96875.16;;;9.68;100.00
23677;BME280;31493;49.058;12.190;2023-05-03T07:20:37;96869.34;;;9.64;100.00
23677;BME280;31493;49.058;12.190;2023-05-03T07:23:04;96861.59;;;9.80;100.00
23677;BME280;31493;49.058;12.190;2023-05-03T07:25:33;96877.91;;;9.98;100.00
23677;BME280;31493;49.058;12.190;2023-05-03T07:28:00;96868.72;;;10.26;100.00
23677;BME280;31493;49.058;12.190;2023-05-03T07:30:28;96876.53;;;10.24;100.00
23677;BME280;31493;49.058;12.190;2023-05-03T07:32:55;96867.88;;;10.41;100.00
23677;BME280;31493;49.058;12.190;2023-05-03T07:35:22;96859.78;;;10.47;100.00
23677;BME280;31493;49.058;12.190;2023-05-03T07:37:51;96859.28;;;10.56;100.00
23677;BME280;31493;49.058;12.190;2023-05-03T07:40:18;96847.16;;;10.41;100.00
23677;BME280;31493;49.058;12.190;2023-05-03T07:42:46;96846.34;;;10.40;100.00
23677;BME280;31493;49.058;12.190;2023-05-03T07:45:13;96851.00;;;10.65;100.00
23677;BME280;31493;49.058;12.190;2023-05-03T07:47:40;96842.06;;;11.01;100.00
23677;BME280;31493;49.058;12.190;2023-05-03T07:50:08;96847.94;;;10.89;100.00
23677;BME280;31493;49.058;12.190;2023-05-03T07:52:35;96855.63;;;10.90;100.00
23677;BME280;31493;49.058;12.190;2023-05-03T07:55:03;96845.25;;;11.06;100.00
23677;BME280;31493;49.058;12.190;2023-05-03T07:57:30;96853.41;;;11.28;100.00
23677;BME280;31493;49.058;12.190;2023-05-03T07:59:59;96853.38;;;11.44;100.00
23677;BME280;31493;49.058;12.190;2023-05-03T08:02:26;96852.09;;;11.07;100.00
23677;BME280;31493;49.058;12.190;2023-05-03T08:04:53;96854.19;;;11.30;100.00
23677;BME280;31493;49.058;12.190;2023-05-03T08:07:20;96851.34;;;11.64;100.00
23677;BME280;31493;49.058;12.190;2023-05-03T08:09:48;96841.22;;;11.30;100.00
23677;BME280;31493;49.058;12.190;2023-05-03T08:12:18;96855.31;;;11.41;100.00
23677;BME280;31493;49.058;12.190;2023-05-03T08:14:45;96855.25;;;11.12;100.00
23677;BME280;31493;49.058;12.190;2023-05-03T08:17:13;96850.84;;;10.98;100.00
23677;BME280;31493;49.058;12.190;2023-05-03T08:19:40;96856.69;;;11.02;100.00
23677;BME280;31493;49.058;12.190;2023-05-03T08:22:08;96853.94;;;11.05;100.00
23677;BME280;31493;49.058;12.190;2023-05-03T08:24:37;96857.31;;;11.21;100.00
23677;BME280;31493;49.058;12.190;2023-05-03T08:27:04;96855.03;;;11.31;98.55
23677;BME280;31493;49.058;12.190;2023-05-03T08:29:33;96850.03;;;11.42;97.44
23677;BME280;31493;49.058;12.190;2023-05-03T08:32:02;96842.22;;;11.72;96.57
23677;BME280;31493;49.058;12.190;2023-05-03T08:34:30;96855.34;;;11.69;96.52
23677;BME280;31493;49.058;12.190;2023-05-03T08:36:57;96844.97;;;11.69;96.07
23677;BME280;31493;49.058;12.190;2023-05-03T08:39:24;96854.41;;;11.56;95.34
23677;BME280;31493;49.058;12.190;2023-05-03T08:41:52;96853.69;;;11.97;96.61
23677;BME280;31493;49.058;12.190;2023-05-03T08:44:21;96859.72;;;11.83;96.96
23677;BME280;31493;49.058;12.190;2023-05-03T08:46:48;96842.34;;;11.85;95.96
23677;BME280;31493;49.058;12.190;2023-05-03T08:49:16;96853.25;;;12.04;96.33
23677;BME280;31493;49.058;12.190;2023-05-03T08:51:44;96852.88;;;11.96;94.03
23677;BME280;31493;49.058;12.190;2023-05-03T08:54:13;96860.28;;;12.17;94.53
23677;BME280;31493;49.058;12.190;2023-05-03T08:56:42;96854.72;;;12.23;93.55
23677;BME280;31493;49.058;12.190;2023-05-03T08:59:09;96857.75;;;12.15;93.38
23677;BME280;31493;49.058;12.190;2023-05-03T09:01:37;96856.38;;;12.24;91.95
23677;BME280;31493;49.058;12.190;2023-05-03T09:04:04;96849.63;;;12.07;90.65
23677;BME280;31493;49.058;12.190;2023-05-03T09:06:33;96857.94;;;12.26;90.66
23677;BME280;31493;49.058;12.190;2023-05-03T09:09:03;96862.56;;;12.35;91.04
23677;BME280;31493;49.058;12.190;2023-05-03T09:11:33;96860.19;;;12.18;91.07
23677;BME280;31493;49.058;12.190;2023-05-03T09:14:10;96866.59;;;11.98;92.90
23677;BME280;31493;49.058;12.190;2023-05-03T09:16:39;96864.91;;;11.83;91.39
23677;BME280;31493;49.058;12.190;2023-05-03T09:19:07;96856.84;;;12.16;92.44
23677;BME280;31493;49.058;12.190;2023-05-03T09:21:38;96858.59;;;12.57;91.54
23677;BME280;31493;49.058;12.190;2023-05-03T09:24:13;96859.59;;;12.27;90.65
23677;BME280;31493;49.058;12.190;2023-05-03T09:26:41;96866.28;;;12.31;91.28
23677;BME280;31493;49.058;12.190;2023-05-03T09:29:08;96859.03;;;12.36;89.28
23677;BME280;31493;49.058;12.190;2023-05-03T09:31:36;96867.69;;;12.64;90.24
23677;BME280;31493;49.058;12.190;2023-05-03T09:34:20;96859.81;;;13.05;88.38
23677;BME280;31493;49.058;12.190;2023-05-03T09:36:47;96856.94;;;12.56;88.02
23677;BME280;31493;49.058;12.190;2023-05-03T09:39:18;96865.69;;;12.55;87.26
23677;BME280;31493;49.058;12.190;2023-05-03T09:41:46;96858.94;;;12.38;89.58
23677;BME280;31493;49.058;12.190;2023-05-03T09:44:13;96864.41;;;12.33;89.28
23677;BME280;31493;49.058;12.190;2023-05-03T09:47:00;96857.72;;;12.44;89.54
23677;BME280;31493;49.058;12.190;2023-05-03T09:49:29;96848.94;;;12.46;88.33
23677;BME280;31493;49.058;12.190;2023-05-03T09:51:57;96860.25;;;12.31;88.54
23677;BME280;31493;49.058;12.190;2023-05-03T09:54:26;96866.94;;;12.21;88.68
23677;BME280;31493;49.058;12.190;2023-05-03T09:56:56;96854.41;;;12.27;88.67
23677;BME280;31493;49.058;12.190;2023-05-03T09:59:23;96849.06;;;12.84;87.23
23677;BME280;31493;49.058;12.190;2023-05-03T10:01:55;96847.88;;;12.76;88.19
23677;BME280;31493;49.058;12.190;2023-05-03T10:04:24;96859.50;;;12.97;86.64
23677;BME280;31493;49.058;12.190;2023-05-03T10:06:55;96852.03;;;12.51;87.01
23677;BME280;31493;49.058;12.190;2023-05-03T10:09:28;96854.84;;;13.02;85.68
23677;BME280;31493;49.058;12.190;2023-05-03T10:11:58;96850.34;;;12.91;82.73
23677;BME280;31493;49.058;12.190;2023-05-03T10:14:26;96853.19;;;13.01;82.50
23677;BME280;31493;49.058;12.190;2023-05-03T10:16:58;96845.72;;;13.09;82.40
23677;BME280;31493;49.058;12.190;2023-05-03T10:19:29;96849.31;;;13.07;80.59
23677;BME280;31493;49.058;12.190;2023-05-03T10:22:02;96844.97;;;13.60;80.30
23677;BME280;31493;49.058;12.190;2023-05-03T10:24:32;96843.84;;;13.51;80.52
23677;BME280;31493;49.058;12.190;2023-05-03T10:26:59;96852.88;;;13.33;80.42
23677;BME280;31493;49.058;12.190;2023-05-03T10:29:45;96846.28;;;13.27;79.89
23677;BME280;31493;49.058;12.190;2023-05-03T10:32:35;96835.38;;;13.48;80.93
23677;BME280;31493;49.058;12.190;2023-05-03T10:35:07;96836.22;;;13.48;82.08
23677;BME280;31493;49.058;12.190;2023-05-03T10:37:35;96841.41;;;13.35;83.21
23677;BME280;31493;49.058;12.190;2023-05-03T10:40:09;96842.88;;;13.52;82.65
23677;BME280;31493;49.058;12.190;2023-05-03T10:42:41;96838.41;;;13.41;83.08
23677;BME280;31493;49.058;12.190;2023-05-03T10:45:19;96837.88;;;13.75;80.79
23677;BME280;31493;49.058;12.190;2023-05-03T10:48:14;96831.47;;;14.17;81.49
23677;BME280;31493;49.058;12.190;2023-05-03T10:50:45;96834.19;;;14.15;79.83
23677;BME280;31493;49.058;12.190;2023-05-03T10:53:36;96836.84;;;14.39;75.99
23677;BME280;31493;49.058;12.190;2023-05-03T10:56:07;96845.41;;;14.29;75.54
23677;BME280;31493;49.058;12.190;2023-05-03T10:58:36;96846.59;;;13.99;76.05
23677;BME280;31493;49.058;12.190;2023-05-03T11:01:04;96834.63;;;14.09;77.81
23677;BME280;31493;49.058;12.190;2023-05-03T11:03:43;96839.94;;;14.08;77.25
23677;BME280;31493;49.058;12.190;2023-05-03T11:06:31;96831.66;;;13.64;76.76
23677;BME280;31493;49.058;12.190;2023-05-03T11:08:59;96830.91;;;13.50;75.04
23677;BME280;31493;49.058;12.190;2023-05-03T11:11:28;96840.03;;;14.19;73.69
23677;BME280;31493;49.058;12.190;2023-05-03T11:13:56;96823.47;;;14.81;74.77
23677;BME280;31493;49.058;12.190;2023-05-03T11:16:24;96834.69;;;14.94;74.80
23677;BME280;31493;49.058;12.190;2023-05-03T11:18:52;96820.03;;;14.56;74.74
23677;BME280;31493;49.058;12.190;2023-05-03T11:21:20;96822.25;;;14.00;73.53
23677;BME280;31493;49.058;12.190;2023-05-03T11:23:47;96830.34;;;14.58;77.36
23677;BME280;31493;49.058;12.190;2023-05-03T11:26:14;96811.34;;;14.32;72.94
23677;BME280;31493;49.058;12.190;2023-05-03T11:28:43;96817.44;;;14.56;74.75
23677;BME280;31493;49.058;12.190;2023-05-03T11:31:11;96817.06;;;14.73;73.52
23677;BME280;31493;49.058;12.190;2023-05-03T11:33:39;96810.41;;;14.69;73.49
23677;BME280;31493;49.058;12.190;2023-05-03T11:36:07;96804.28;;;14.21;73.20
23677;BME280;31493;49.058;12.190;2023-05-03T11:38:36;96818.06;;;14.10;72.07
23677;BME280;31493;49.058;12.190;2023-05-03T11:41:10;96804.56;;;14.66;69.71
23677;BME280;31493;49.058;12.190;2023-05-03T11:43:43;96803.41;;;14.70;71.37
23677;BME280;31493;49.058;12.190;2023-05-03T11:46:12;96802.06;;;14.64;70.24
23677;BME280;31493;49.058;12.190;2023-05-03T11:48:42;96801.72;;;14.93;70.09
23677;BME280;31493;49.058;12.190;2023-05-03T11:51:09;96810.69;;;14.41;67.06
23677;BME280;31493;49.058;12.190;2023-05-03T11:53:38;96806.22;;;14.91;66.75
23677;BME280;31493;49.058;12.190;2023-05-03T11:56:06;96805.78;;;15.43;67.06
23677;BME280;31493;49.058;12.190;2023-05-03T11:58:34;96801.69;;;15.74;67.50
23677;BME280;31493;49.058;12.190;2023-05-03T12:01:03;96796.16;;;15.44;64.04
23677;BME280;31493;49.058;12.190;2023-05-03T12:03:30;96799.94;;;15.40;62.61
23677;BME280;31493;49.058;12.190;2023-05-03T12:05:58;96790.28;;;15.07;63.42
23677;BME280;31493;49.058;12.190;2023-05-03T12:08:29;96799.50;;;16.24;64.59
23677;BME280;31493;49.058;12.190;2023-05-03T12:10:57;96794.56;;;15.88;61.75
23677;BME280;31493;49.058;12.190;2023-05-03T12:13:27;96791.94;;;15.99;64.26
23677;BME280;31493;49.058;12.190;2023-05-03T12:15:56;96791.38;;;15.73;66.14
23677;BME280;31493;49.058;12.190;2023-05-03T12:18:24;96805.13;;;15.97;66.35
23677;BME280;31493;49.058;12.190;2023-05-03T12:20:54;96795.75;;;15.95;63.58
23677;BME280;31493;49.058;12.190;2023-05-03T12:23:22;96792.41;;;15.59;62.82
23677;BME280;31493;49.058;12.190;2023-05-03T12:25:50;96792.91;;;15.87;63.37
23677;BME280;31493;49.058;12.190;2023-05-03T12:28:17;96792.25;;;15.49;63.85
23677;BME280;31493;49.058;12.190;2023-05-03T12:30:45;96790.94;;;15.44;62.48
23677;BME280;31493;49.058;12.190;2023-05-03T12:33:12;96783.41;;;15.74;63.12
23677;BME280;31493;49.058;12.190;2023-05-03T12:35:42;96782.91;;;16.14;62.06
23677;BME280;31493;49.058;12.190;2023-05-03T12:38:09;96783.97;;;16.34;60.29
23677;BME280;31493;49.058;12.190;2023-05-03T12:40:37;96783.47;;;15.39;63.23
23677;BME280;31493;49.058;12.190;2023-05-03T12:43:05;96782.91;;;15.00;64.11
23677;BME280;31493;49.058;12.190;2023-05-03T12:45:32;96781.66;;;15.17;63.03
23677;BME280;31493;49.058;12.190;2023-05-03T12:47:59;96774.94;;;14.56;63.51
23677;BME280;31493;49.058;12.190;2023-05-03T12:50:27;96775.38;;;14.49;64.05
23677;BME280;31493;49.058;12.190;2023-05-03T12:52:56;96771.75;;;14.63;63.17
23677;BME280;31493;49.058;12.190;2023-05-03T12:55:23;96767.50;;;14.62;60.76
23677;BME280;31493;49.058;12.190;2023-05-03T12:57:51;96767.53;;;14.73;60.96